Causey, New Mexico
Current Conditions -  °F | °C
As of 1:58 AM on Friday 24 Oct 2014 (Local Time) from KCVS Reporting Station
Clear Clear  
Wind Chill: 59°   Ceiling: Unl
Heat Index: 59°   Visibility: 10mi
Dew Point: 52°   Wind: 9mph
Humidity: 78%   Direction: 270°W
Pressure: 30.17"   Gusts: NA
Location:  33.88°N, 103.13°W
Report Text: KCVS 240758Z AUTO 27008KT 10SM CLR 15/11 A3017 RMK AO2 SLP165 T01500111 $
Loading
Personal Weather Stations






























Interactive Weather Map
Tropical Storm Tracking
New forecast layout! Learn more

10-Day Weather Forecast

Advertisements
Track Severe Weather on mobile